createdAt,value
2022-12-15T00:00:00.000Z,30.11
2022-12-15T00:15:00.000Z,29.85
2022-12-15T00:30:00.000Z,30.08
2022-12-15T00:45:00.000Z,30.41
2022-12-15T01:00:00.000Z,30.22
2022-12-15T01:15:00.000Z,30.09
2022-12-15T01:30:00.000Z,29.86
2022-12-15T01:45:00.000Z,29.15
2022-12-15T02:00:00.000Z,28.99
2022-12-15T02:15:00.000Z,29.05
2022-12-15T02:30:00.000Z,28.72
2022-12-15T02:45:00.000Z,28.99
2022-12-15T03:00:00.000Z,28.78
2022-12-15T03:15:00.000Z,27.71
2022-12-15T03:30:00.000Z,27.2
2022-12-15T03:45:00.000Z,27.55
2022-12-15T04:00:00.000Z,26.62
2022-12-15T04:15:00.000Z,26.15
2022-12-15T04:30:00.000Z,27.06
2022-12-15T04:45:00.000Z,28.38
2022-12-15T05:00:00.000Z,28.51
2022-12-15T05:15:00.000Z,28.82
2022-12-15T05:30:00.000Z,29.42
2022-12-15T05:45:00.000Z,30.44
2022-12-15T06:00:00.000Z,32.44
2022-12-15T06:15:00.000Z,35.25
2022-12-15T06:30:00.000Z,36.01
2022-12-15T06:45:00.000Z,38.46
2022-12-15T07:00:00.000Z,40.48
2022-12-15T07:15:00.000Z,41.68
2022-12-15T07:30:00.000Z,42.32
2022-12-15T07:45:00.000Z,42.86
2022-12-15T08:00:00.000Z,43.38
2022-12-15T08:15:00.000Z,44
2022-12-15T08:30:00.000Z,44.87
2022-12-15T08:45:00.000Z,52.52
2022-12-15T09:00:00.000Z,56.73
2022-12-15T09:15:00.000Z,61.45
2022-12-15T09:30:00.000Z,64.65
2022-12-15T09:45:00.000Z,65.56
2022-12-15T10:00:00.000Z,69.13
2022-12-15T10:15:00.000Z,70.52
2022-12-15T10:30:00.000Z,68.44
2022-12-15T10:45:00.000Z,71.42
2022-12-15T11:00:00.000Z,73.06
2022-12-15T11:15:00.000Z,74.71
2022-12-15T11:30:00.000Z,74.74
2022-12-15T11:45:00.000Z,74.48
2022-12-15T12:00:00.000Z,74.71
2022-12-15T12:15:00.000Z,77.85
2022-12-15T12:30:00.000Z,78.51
2022-12-15T12:45:00.000Z,81.62
2022-12-15T13:00:00.000Z,80.54
2022-12-15T13:15:00.000Z,80.72
2022-12-15T13:30:00.000Z,81.29
2022-12-15T13:45:00.000Z,81.35
2022-12-15T14:00:00.000Z,84.24
2022-12-15T14:15:00.000Z,83.01
2022-12-15T14:30:00.000Z,83.56
2022-12-15T14:45:00.000Z,86.89
2022-12-15T15:00:00.000Z,84.99
2022-12-15T15:15:00.000Z,86.31
2022-12-15T15:30:00.000Z,84.28
2022-12-15T15:45:00.000Z,85.96
2022-12-15T16:00:00.000Z,88.46
2022-12-15T16:15:00.000Z,87.15
2022-12-15T16:30:00.000Z,91.16
2022-12-15T16:45:00.000Z,88.42
2022-12-15T17:00:00.000Z,87.78
2022-12-15T17:15:00.000Z,86.73
2022-12-15T17:30:00.000Z,86.94
2022-12-15T17:45:00.000Z,157.15
2022-12-15T18:00:00.000Z,90.48
2022-12-15T18:15:00.000Z,90.84
2022-12-15T18:30:00.000Z,91.89
2022-12-15T18:45:00.000Z,91.92
2022-12-15T19:00:00.000Z,91.02
2022-12-15T19:15:00.000Z,90.33
2022-12-15T19:30:00.000Z,91.71
2022-12-15T19:45:00.000Z,92.14
2022-12-15T20:00:00.000Z,91.69
2022-12-15T20:15:00.000Z,92.85
2022-12-15T20:30:00.000Z,96.79
2022-12-15T20:45:00.000Z,98.67
2022-12-15T21:00:00.000Z,98.89
2022-12-15T21:15:00.000Z,93.54
2022-12-15T21:30:00.000Z,89.94
2022-12-15T21:45:00.000Z,88.72
2022-12-15T22:00:00.000Z,85.25
2022-12-15T22:15:00.000Z,81.4
2022-12-15T22:30:00.000Z,80.75
2022-12-15T22:45:00.000Z,81.09
2022-12-15T23:00:00.000Z,80.79
2022-12-15T23:15:00.000Z,78.66
2022-12-15T23:30:00.000Z,76.56
2022-12-15T23:45:00.000Z,70.16
